Whitehall, New York
Current Conditions -  °F | °C
As of 4:40 AM on Friday 31 Oct 2014 (Local Time) from KGFL Reporting Station
Haze Haze  
Wind Chill: 29°   Ceiling: Unl
Heat Index: 29°   Visibility: 3mi
Dew Point: 27°   Wind: 0mph
Humidity: 92%   Direction: NA
Pressure: 30.03"   Gusts: NA
Location:  43.56°N, 73.4°W
Report Text: KGFL 310840Z AUTO 00000KT 3SM BR CLR M02/M03 A3003 RMK AO2 I1000 T10171028
Loading
Personal Weather Stations






























Interactive Weather Map
Tropical Storm Tracking
New forecast layout! Learn more

10-Day Weather Forecast

Advertisements
Track Severe Weather on mobile